createdAt,value
2019-01-05T00:00:19.587Z,89.03
2019-01-05T00:02:53.537Z,88.65
2019-01-05T00:05:33.322Z,89.06
2019-01-05T00:08:06.947Z,89.04
2019-01-05T00:10:48.292Z,89.11
2019-01-05T00:13:22.132Z,89.02
2019-01-05T00:16:01.815Z,88.82
2019-01-05T00:18:36.324Z,88.95
2019-01-05T00:21:26.039Z,89.07
2019-01-05T00:24:03.297Z,89.24
2019-01-05T00:26:43.737Z,89.38
2019-01-05T00:29:17.836Z,89.48
2019-01-05T00:32:30.977Z,89.25
2019-01-05T00:35:03.093Z,89.19
2019-01-05T00:37:36.783Z,89.30
2019-01-05T00:40:08.256Z,89.15
2019-01-05T00:42:55.257Z,89.17
2019-01-05T00:45:28.940Z,89.29
2019-01-05T00:48:06.762Z,88.93
2019-01-05T00:50:38.184Z,88.99
2019-01-05T00:53:12.573Z,89.02
2019-01-05T00:55:47.573Z,88.99
2019-01-05T00:58:28.314Z,88.96
2019-01-05T01:01:05.384Z,88.93
2019-01-05T01:03:52.445Z,88.85
2019-01-05T01:06:38.403Z,88.90
2019-01-05T01:09:09.961Z,88.83
2019-01-05T01:11:41.380Z,88.85
2019-01-05T01:14:24.111Z,89.04
2019-01-05T01:16:55.289Z,89.00
2019-01-05T01:19:35.307Z,88.99
2019-01-05T01:22:18.471Z,89.28
2019-01-05T01:24:55.768Z,89.19
2019-01-05T01:27:41.626Z,89.06
2019-01-05T01:30:15.190Z,89.20
2019-01-05T01:32:49.412Z,89.34
2019-01-05T01:35:26.087Z,89.23
2019-01-05T01:38:16.279Z,89.26
2019-01-05T01:40:49.978Z,89.38
2019-01-05T01:43:21.260Z,89.52
2019-01-05T01:45:58.685Z,89.53
2019-01-05T01:48:38.964Z,89.46
2019-01-05T01:51:11.091Z,89.36
2019-01-05T01:53:43.698Z,89.28
2019-01-05T01:56:30.025Z,89.28
2019-01-05T01:59:19.176Z,89.49
2019-01-05T02:01:56.947Z,89.66
2019-01-05T02:04:44.294Z,89.56
2019-01-05T02:07:25.757Z,89.57
2019-01-05T02:10:03.392Z,89.62
2019-01-05T02:12:36.876Z,89.50
2019-01-05T02:15:15.721Z,89.57
2019-01-05T02:18:04.439Z,89.74
2019-01-05T02:20:52.188Z,89.82
2019-01-05T02:24:09.824Z,89.62
2019-01-05T02:27:27.988Z,89.52
2019-01-05T02:30:41.305Z,89.53
2019-01-05T02:33:46.865Z,89.56
2019-01-05T02:37:03.833Z,89.29
2019-01-05T02:39:45.458Z,89.22
2019-01-05T02:42:32.170Z,89.14
2019-01-05T02:45:58.235Z,89.25
2019-01-05T02:49:03.485Z,89.21
2019-01-05T02:52:01.451Z,89.32
2019-01-05T02:55:05.425Z,89.85
2019-01-05T02:58:14.111Z,89.82
2019-01-05T03:01:22.483Z,89.76
2019-01-05T03:04:29.497Z,89.61
2019-01-05T03:07:44.938Z,90.01
2019-01-05T03:10:52.292Z,89.81
2019-01-05T03:14:15.507Z,89.62
2019-01-05T03:17:28.061Z,89.53
2019-01-05T03:20:56.109Z,89.91
2019-01-05T03:24:01.026Z,89.80
2019-01-05T03:27:06.658Z,89.74
2019-01-05T03:30:04.502Z,89.65
2019-01-05T03:33:10.241Z,89.48
2019-01-05T03:36:23.267Z,89.34
2019-01-05T03:39:20.932Z,89.59
2019-01-05T03:42:21.823Z,89.60
2019-01-05T03:45:37.275Z,89.65
2019-01-05T03:48:30.921Z,89.69
2019-01-05T03:51:43.997Z,89.81
2019-01-05T03:55:01.360Z,90.09
2019-01-05T03:58:16.782Z,89.86
2019-01-05T04:01:06.774Z,89.80
2019-01-05T04:04:11.478Z,90.01
2019-01-05T04:06:58.813Z,90.18
2019-01-05T04:10:05.974Z,90.37
2019-01-05T04:12:57.202Z,90.50
2019-01-05T04:15:53.589Z,90.34
2019-01-05T04:19:17.449Z,90.21
2019-01-05T04:22:24.353Z,90.30
2019-01-05T04:25:20.326Z,90.12
2019-01-05T04:28:29.031Z,90.31
2019-01-05T04:31:48.306Z,90.16
2019-01-05T04:35:11.636Z,90.05
2019-01-05T04:38:33.205Z,90.01
2019-01-05T04:41:38.977Z,90.10
2019-01-05T04:44:53.573Z,90.03
2019-01-05T04:47:49.906Z,89.88
2019-01-05T04:50:50.908Z,90.02
2019-01-05T04:54:05.784Z,89.91
2019-01-05T04:57:19.849Z,89.85
2019-01-05T05:00:31.353Z,90.00
2019-01-05T05:03:41.093Z,89.90
2019-01-05T05:07:07.791Z,90.33
2019-01-05T05:10:35.930Z,90.48
2019-01-05T05:13:45.844Z,90.27
2019-01-05T05:16:45.847Z,90.14
2019-01-05T05:19:51.295Z,90.39
2019-01-05T05:22:50.508Z,90.58
2019-01-05T05:25:57.360Z,90.67
2019-01-05T05:29:02.618Z,90.51
2019-01-05T05:32:03.528Z,90.69
2019-01-05T05:35:35.850Z,90.67
2019-01-05T05:38:40.002Z,90.65
2019-01-05T05:42:04.403Z,90.66
2019-01-05T05:45:16.060Z,90.62
2019-01-05T05:47:54.620Z,90.74
2019-01-05T05:50:54.104Z,90.96
2019-01-05T05:54:08.866Z,90.96
2019-01-05T05:57:25.070Z,90.92
2019-01-05T06:00:09.524Z,91.19
2019-01-05T06:03:09.899Z,91.20
2019-01-05T06:06:36.447Z,91.12
2019-01-05T06:10:10.630Z,90.97
2019-01-05T06:13:29.566Z,91.14
2019-01-05T06:16:48.934Z,91.33
2019-01-05T06:20:15.151Z,91.45
2019-01-05T06:23:09.937Z,91.53
2019-01-05T06:26:14.921Z,91.33
2019-01-05T06:29:42.527Z,91.47
2019-01-05T06:32:58.932Z,91.41
2019-01-05T06:36:05.642Z,91.65
2019-01-05T06:39:15.457Z,91.46
2019-01-05T06:42:09.014Z,91.37
2019-01-05T06:45:02.456Z,91.28
2019-01-05T06:48:20.137Z,91.34
2019-01-05T06:51:37.240Z,91.25
2019-01-05T06:54:58.060Z,91.25
2019-01-05T06:58:19.915Z,91.14
2019-01-05T07:01:51.724Z,91.08
2019-01-05T07:04:46.053Z,91.11
2019-01-05T07:07:30.923Z,91.18
2019-01-05T07:10:46.870Z,91.05
2019-01-05T07:13:45.983Z,90.92
2019-01-05T07:17:01.957Z,90.82
2019-01-05T07:20:33.211Z,90.82
2019-01-05T07:23:51.969Z,90.84
2019-01-05T07:27:17.116Z,91.02
2019-01-05T07:30:34.704Z,91.05
2019-01-05T07:33:25.011Z,90.90
2019-01-05T07:37:06.343Z,91.01
2019-01-05T07:40:29.420Z,90.96
2019-01-05T07:43:33.118Z,91.02
2019-01-05T07:46:43.043Z,91.06
2019-01-05T07:50:04.019Z,90.95
2019-01-05T07:53:15.637Z,90.79
2019-01-05T07:56:34.210Z,90.66
2019-01-05T07:59:42.552Z,90.58
2019-01-05T08:03:08.839Z,90.49
2019-01-05T08:05:59.321Z,90.34
2019-01-05T08:09:26.999Z,90.34
2019-01-05T08:12:35.280Z,90.35
2019-01-05T08:15:54.654Z,90.51
2019-01-05T08:19:22.556Z,90.44
2019-01-05T08:22:21.943Z,90.49
2019-01-05T08:25:28.349Z,90.59
2019-01-05T08:28:35.626Z,90.52
2019-01-05T08:31:57.494Z,90.49
2019-01-05T08:35:06.801Z,90.51
2019-01-05T08:38:12.292Z,90.38
2019-01-05T08:41:26.338Z,90.38
2019-01-05T08:44:45.581Z,90.26
2019-01-05T08:47:42.258Z,90.39
2019-01-05T08:50:33.042Z,90.38
2019-01-05T08:53:39.796Z,90.29
2019-01-05T08:56:39.179Z,90.32
2019-01-05T08:59:52.218Z,90.34
2019-01-05T09:03:05.234Z,90.46
2019-01-05T09:06:11.087Z,90.53
2019-01-05T09:09:17.270Z,90.57
2019-01-05T09:12:11.036Z,90.45
2019-01-05T09:15:24.068Z,90.27
2019-01-05T09:18:30.442Z,90.16
2019-01-05T09:21:34.451Z,89.93
2019-01-05T09:24:31.821Z,89.92
2019-01-05T09:27:43.645Z,90.03
2019-01-05T09:30:34.292Z,90.00
2019-01-05T09:33:33.614Z,89.98
2019-01-05T09:36:36.714Z,89.79
2019-01-05T09:39:37.386Z,89.78
2019-01-05T09:42:54.997Z,89.82
2019-01-05T09:46:03.582Z,89.76
2019-01-05T09:49:12.569Z,89.69
2019-01-05T09:52:34.506Z,89.65
2019-01-05T09:55:35.101Z,89.55
2019-01-05T09:58:37.652Z,89.46
2019-01-05T10:01:49.875Z,89.31
2019-01-05T10:04:56.498Z,89.19
2019-01-05T10:08:09.216Z,89.39
2019-01-05T10:11:11.135Z,89.47
2019-01-05T10:14:19.473Z,89.50
2019-01-05T10:17:15.942Z,89.43
2019-01-05T10:20:33.331Z,89.25
2019-01-05T10:23:59.311Z,89.13
2019-01-05T10:27:09.263Z,89.07
2019-01-05T10:30:10.499Z,88.90
2019-01-05T10:33:21.475Z,88.73
2019-01-05T10:36:34.786Z,88.61
2019-01-05T10:39:47.849Z,88.84
2019-01-05T10:42:53.549Z,88.66
2019-01-05T10:46:13.289Z,88.75
2019-01-05T10:49:26.206Z,88.96
2019-01-05T10:52:35.754Z,89.16
2019-01-05T10:56:03.825Z,89.11
2019-01-05T10:59:06.520Z,89.22
2019-01-05T11:02:24.327Z,89.17
2019-01-05T11:05:47.642Z,89.24
2019-01-05T11:08:31.533Z,89.32
2019-01-05T11:11:24.739Z,89.41
2019-01-05T11:14:57.176Z,89.26
2019-01-05T11:18:08.858Z,89.30
2019-01-05T11:21:33.123Z,89.35
2019-01-05T11:24:45.090Z,89.28
2019-01-05T11:27:57.143Z,89.43
2019-01-05T11:31:21.033Z,89.71
2019-01-05T11:34:21.768Z,89.65
2019-01-05T11:37:42.263Z,89.69
2019-01-05T11:41:13.076Z,89.53
2019-01-05T11:44:45.530Z,89.69
2019-01-05T11:47:35.869Z,89.57
2019-01-05T11:50:59.349Z,89.51
2019-01-05T11:54:17.474Z,89.52
2019-01-05T11:57:36.563Z,89.71
2019-01-05T12:00:49.924Z,89.64
2019-01-05T12:04:05.724Z,89.54
2019-01-05T12:07:08.207Z,89.38
2019-01-05T12:10:09.022Z,89.32
2019-01-05T12:13:17.263Z,89.26
2019-01-05T12:16:13.082Z,89.09
2019-01-05T12:19:23.122Z,89.04
2019-01-05T12:22:41.553Z,88.89
2019-01-05T12:25:57.305Z,88.97
2019-01-05T12:29:11.713Z,89.12
2019-01-05T12:31:56.443Z,88.98
2019-01-05T12:35:05.018Z,88.94
2019-01-05T12:38:10.303Z,89.12
2019-01-05T12:41:45.383Z,89.10
2019-01-05T12:45:09.294Z,88.85
2019-01-05T12:48:35.927Z,88.90
2019-01-05T12:51:34.071Z,88.85
2019-01-05T12:54:43.720Z,88.96
2019-01-05T12:58:11.580Z,88.96
2019-01-05T13:01:08.566Z,88.98
2019-01-05T13:04:31.523Z,89.12
2019-01-05T13:07:25.057Z,88.99
2019-01-05T13:10:44.318Z,88.92
2019-01-05T13:13:44.806Z,88.96
2019-01-05T13:17:02.017Z,88.91
2019-01-05T13:20:14.914Z,88.70
2019-01-05T13:23:32.136Z,88.57
2019-01-05T13:26:16.652Z,88.67
2019-01-05T13:29:28.741Z,88.92
2019-01-05T13:32:07.503Z,88.80
2019-01-05T13:35:38.317Z,88.90
2019-01-05T13:38:40.497Z,88.85
2019-01-05T13:41:57.290Z,88.96
2019-01-05T13:45:20.307Z,89.02
2019-01-05T13:48:13.321Z,89.10
2019-01-05T13:51:09.081Z,89.12
2019-01-05T13:53:58.870Z,89.09
2019-01-05T13:56:47.340Z,88.95
2019-01-05T13:59:33.651Z,89.14
2019-01-05T14:02:20.596Z,89.14
2019-01-05T14:05:08.149Z,89.25
2019-01-05T14:07:55.422Z,89.14
2019-01-05T14:10:30.849Z,89.24
2019-01-05T14:13:02.033Z,89.42
2019-01-05T14:15:33.295Z,89.34
2019-01-05T14:18:13.149Z,89.33
2019-01-05T14:20:51.163Z,89.30
2019-01-05T14:23:22.334Z,89.42
2019-01-05T14:26:09.449Z,89.50
2019-01-05T14:28:52.962Z,89.58
2019-01-05T14:31:26.581Z,89.44
2019-01-05T14:34:09.179Z,89.16
2019-01-05T14:36:47.314Z,89.24
2019-01-05T14:39:36.463Z,89.40
2019-01-05T14:42:16.745Z,89.58
2019-01-05T14:44:54.085Z,89.65
2019-01-05T14:47:42.176Z,89.78
2019-01-05T14:50:19.351Z,89.62
2019-01-05T14:53:08.043Z,89.69
2019-01-05T14:55:54.078Z,89.72
2019-01-05T14:58:30.502Z,89.68
2019-01-05T15:01:13.483Z,89.48
2019-01-05T15:04:02.459Z,89.37
2019-01-05T15:06:51.208Z,89.52
2019-01-05T15:09:28.424Z,89.33
2019-01-05T15:11:59.790Z,89.51
2019-01-05T15:14:36.821Z,89.67
2019-01-05T15:17:13.585Z,89.69
2019-01-05T15:20:01.602Z,89.78
2019-01-05T15:22:34.084Z,89.56
2019-01-05T15:25:08.102Z,89.48
2019-01-05T15:27:55.441Z,89.50
2019-01-05T15:30:44.847Z,89.34
2019-01-05T15:33:32.276Z,89.33
2019-01-05T15:36:12.491Z,89.54
2019-01-05T15:39:00.007Z,89.46
2019-01-05T15:41:47.071Z,89.46
2019-01-05T15:44:30.242Z,89.60
2019-01-05T15:47:01.975Z,89.80
2019-01-05T15:49:33.142Z,89.73
2019-01-05T15:52:20.241Z,89.63
2019-01-05T15:55:03.338Z,89.62
2019-01-05T15:57:51.710Z,89.63
2019-01-05T16:00:40.290Z,89.58
2019-01-05T16:03:13.186Z,89.36
2019-01-05T16:05:54.167Z,89.49
2019-01-05T16:08:41.763Z,89.52
2019-01-05T16:11:12.907Z,89.41
2019-01-05T16:13:52.741Z,89.34
2019-01-05T16:16:40.041Z,89.23
2019-01-05T16:19:11.217Z,89.21
2019-01-05T16:21:59.816Z,89.07
2019-01-05T16:24:33.454Z,89.22
2019-01-05T16:27:11.971Z,89.23
2019-01-05T16:29:59.015Z,89.27
2019-01-05T16:32:35.900Z,89.10
2019-01-05T16:35:17.657Z,89.03
2019-01-05T16:37:52.369Z,88.81
2019-01-05T16:40:24.000Z,88.85
2019-01-05T16:43:06.374Z,88.85
2019-01-05T16:45:37.570Z,88.90
2019-01-05T16:48:11.641Z,89.23
2019-01-05T16:50:45.462Z,89.33
2019-01-05T16:53:16.653Z,89.26
2019-01-05T16:56:02.431Z,89.04
2019-01-05T16:58:42.260Z,88.92
2019-01-05T17:01:13.504Z,88.89
2019-01-05T17:03:47.376Z,88.97
2019-01-05T17:06:26.994Z,89.07
2019-01-05T17:09:10.273Z,89.03
2019-01-05T17:11:57.469Z,89.20
2019-01-05T17:14:29.426Z,89.19
2019-01-05T17:17:13.345Z,89.45
2019-01-05T17:19:44.531Z,89.46
2019-01-05T17:22:22.615Z,89.30
2019-01-05T17:25:09.940Z,89.31
2019-01-05T17:27:50.085Z,89.43
2019-01-05T17:30:21.258Z,89.47
2019-01-05T17:33:09.831Z,89.77
2019-01-05T17:35:58.535Z,89.72
2019-01-05T17:38:29.967Z,89.92
2019-01-05T17:41:01.136Z,89.88
2019-01-05T17:43:32.367Z,89.61
2019-01-05T17:46:09.346Z,89.48
2019-01-05T17:48:56.372Z,89.32
2019-01-05T17:51:39.492Z,89.25
2019-01-05T17:54:26.516Z,89.05
2019-01-05T17:56:57.692Z,89.14
2019-01-05T17:59:40.370Z,89.10
2019-01-05T18:02:14.176Z,88.96
2019-01-05T18:05:01.297Z,88.96
2019-01-05T18:07:34.897Z,88.94
2019-01-05T18:10:25.682Z,89.23
2019-01-05T18:13:02.501Z,89.20
2019-01-05T18:15:31.842Z,89.29
2019-01-05T18:18:18.833Z,89.31
2019-01-05T18:20:55.756Z,89.37
2019-01-05T18:23:30.485Z,89.27
2019-01-05T18:26:17.252Z,89.13
2019-01-05T18:29:04.058Z,89.20
2019-01-05T18:31:50.877Z,89.31
2019-01-05T18:34:22.075Z,89.32
2019-01-05T18:36:53.241Z,89.17
2019-01-05T18:39:40.255Z,89.05
2019-01-05T18:42:27.238Z,88.89
2019-01-05T18:45:12.913Z,88.97
2019-01-05T18:47:50.453Z,88.99
2019-01-05T18:50:21.954Z,88.78
2019-01-05T18:53:08.971Z,88.97
2019-01-05T18:55:50.020Z,89.11
2019-01-05T18:58:19.335Z,89.03
2019-01-05T19:01:06.382Z,88.95
2019-01-05T19:03:43.089Z,88.82
2019-01-05T19:06:30.191Z,88.81
2019-01-05T19:09:04.321Z,88.76
2019-01-05T19:11:38.205Z,88.85
2019-01-05T19:14:14.799Z,88.88
2019-01-05T19:16:49.517Z,88.80
2019-01-05T19:19:29.675Z,88.76
2019-01-05T19:22:16.480Z,88.78
2019-01-05T19:25:03.359Z,88.93
2019-01-05T19:27:37.170Z,88.93
2019-01-05T19:30:10.073Z,89.05
2019-01-05T19:32:39.667Z,89.00
2019-01-05T19:35:16.593Z,89.12
2019-01-05T19:37:53.503Z,89.37
2019-01-05T19:40:42.552Z,89.33
2019-01-05T19:43:22.735Z,89.24
2019-01-05T19:46:05.569Z,89.32
2019-01-05T19:48:51.859Z,89.36
2019-01-05T19:51:24.458Z,89.23
2019-01-05T19:53:58.631Z,89.09
2019-01-05T19:56:35.785Z,89.23
2019-01-05T19:59:05.120Z,89.14
2019-01-05T20:01:36.868Z,89.30
2019-01-05T20:04:11.915Z,89.52
2019-01-05T20:06:59.270Z,89.42
2019-01-05T20:09:43.451Z,89.47
2019-01-05T20:12:14.646Z,89.56
2019-01-05T20:14:48.839Z,89.57
2019-01-05T20:17:28.805Z,89.61
2019-01-05T20:19:59.983Z,89.71
2019-01-05T20:22:33.891Z,89.75
2019-01-05T20:25:10.592Z,89.57
2019-01-05T20:27:47.583Z,89.64
2019-01-05T20:30:33.542Z,89.83
2019-01-05T20:33:13.679Z,89.91
2019-01-05T20:35:56.923Z,90.06
2019-01-05T20:38:33.816Z,90.08
2019-01-05T20:41:20.929Z,90.07
2019-01-05T20:44:17.565Z,90.00
2019-01-05T20:47:04.958Z,89.93
2019-01-05T20:49:39.038Z,89.81
2019-01-05T20:52:13.120Z,89.97
2019-01-05T20:54:44.300Z,89.89
2019-01-05T20:57:31.093Z,89.89
2019-01-05T21:00:18.083Z,89.90
2019-01-05T21:02:51.659Z,90.18
2019-01-05T21:05:38.707Z,90.20
2019-01-05T21:08:12.550Z,90.12
2019-01-05T21:10:56.760Z,90.23
2019-01-05T21:13:39.475Z,89.94
2019-01-05T21:16:19.560Z,90.00
2019-01-05T21:18:48.850Z,89.85
2019-01-05T21:21:39.655Z,89.77
2019-01-05T21:24:27.145Z,89.82
2019-01-05T21:27:16.258Z,89.83
2019-01-05T21:29:47.454Z,89.85
2019-01-05T21:32:18.645Z,89.74
2019-01-05T21:34:55.538Z,89.78
2019-01-05T21:37:27.054Z,89.73
2019-01-05T21:40:09.935Z,89.75
2019-01-05T21:42:58.997Z,89.76
2019-01-05T21:45:40.342Z,89.87
2019-01-05T21:48:20.340Z,89.77
2019-01-05T21:51:06.607Z,89.65
2019-01-05T21:53:43.588Z,89.64
2019-01-05T21:56:21.479Z,89.74
2019-01-05T21:58:58.213Z,89.58
2019-01-05T22:01:29.426Z,89.76
2019-01-05T22:04:01.198Z,89.74
2019-01-05T22:06:48.243Z,89.58
2019-01-05T22:09:22.121Z,89.70
2019-01-05T22:12:09.148Z,89.70
2019-01-05T22:14:45.738Z,89.55
2019-01-05T22:17:32.546Z,89.69
2019-01-05T22:20:19.659Z,89.66
2019-01-05T22:22:56.734Z,89.66
2019-01-05T22:25:45.583Z,89.64
2019-01-05T22:28:25.560Z,89.64
2019-01-05T22:31:05.805Z,89.79
2019-01-05T22:33:41.460Z,89.74
2019-01-05T22:36:21.044Z,89.78
2019-01-05T22:38:57.859Z,89.65
2019-01-05T22:41:31.433Z,89.62
2019-01-05T22:44:11.041Z,89.61
2019-01-05T22:46:54.915Z,89.70
2019-01-05T22:49:31.665Z,89.82
2019-01-05T22:52:11.624Z,89.91
2019-01-05T22:54:55.093Z,89.97
2019-01-05T22:57:42.065Z,89.83
2019-01-05T23:00:29.452Z,89.64
2019-01-05T23:03:12.398Z,89.88
2019-01-05T23:05:46.239Z,90.22
2019-01-05T23:08:17.939Z,90.13
2019-01-05T23:10:47.234Z,90.02
2019-01-05T23:13:24.135Z,89.94
2019-01-05T23:16:10.438Z,89.82
2019-01-05T23:18:56.413Z,89.84
2019-01-05T23:21:33.407Z,89.79
2019-01-05T23:24:22.773Z,90.00
2019-01-05T23:26:53.972Z,90.08
2019-01-05T23:29:30.589Z,90.30
2019-01-05T23:32:04.420Z,90.34
2019-01-05T23:34:50.612Z,90.31
2019-01-05T23:37:33.593Z,90.24
2019-01-05T23:40:14.774Z,90.26
2019-01-05T23:43:02.083Z,90.41
2019-01-05T23:45:31.390Z,90.35
2019-01-05T23:48:02.583Z,90.33
2019-01-05T23:50:49.590Z,90.37
2019-01-05T23:53:24.851Z,90.39
2019-01-05T23:56:11.863Z,90.26
2019-01-05T23:58:59.243Z,90.37
